Time;durP1;ratioP1;P1;durP2;ratioP2;P2;SDS_P1;SDS_P2;PMS_P1;PMS_P2;Temp;Humidity;BMP_temperature;BMP_pressure;BME280_temperature;BME280_humidity;BME280_pressure;Samples;Min_cycle;Max_cycle;Signal;HPM_P1;HPM_P2
2022/06/21 00:00:44;;;;;;;24.05;5.65;;;24.30;99.90;;;;;;5077081;28;20111;-83
2022/06/21 00:03:15;;;;;;;13.95;5.20;;;24.30;99.90;;;;;;5071450;28;20032;-79
2022/06/21 00:05:49;;;;;;;20.77;5.50;;;24.30;99.90;;;;;;5065832;28;20032;-84
2022/06/21 00:08:27;;;;;;;16.48;5.47;;;24.30;99.90;;;;;;5083139;28;20029;-83
2022/06/21 00:10:56;;;;;;;19.48;5.75;;;24.30;99.90;;;;;;5068633;28;20033;-81
2022/06/21 00:13:33;;;;;;;17.50;5.55;;;24.30;99.90;;;;;;5080787;28;20033;-86
2022/06/21 00:16:13;;;;;;;21.05;5.93;;;24.40;99.90;;;;;;5083656;28;20041;-84
2022/06/21 00:18:42;;;;;;;19.42;5.68;;;24.40;99.90;;;;;;5064256;28;20037;-78
2022/06/21 00:21:19;;;;;;;18.33;5.25;;;24.40;99.90;;;;;;5067202;28;20058;-79
2022/06/21 00:23:47;;;;;;;21.02;4.95;;;24.40;99.90;;;;;;5055733;28;20066;-78
2022/06/21 00:26:16;;;;;;;22.05;5.15;;;24.50;99.90;;;;;;5081592;28;20032;-77
2022/06/21 00:28:42;;;;;;;15.55;4.85;;;24.50;99.90;;;;;;5065751;28;20138;-81
2022/06/21 00:31:19;;;;;;;19.35;5.18;;;24.50;99.90;;;;;;5089945;28;20032;-78
2022/06/21 00:33:48;;;;;;;16.40;4.82;;;24.50;99.90;;;;;;5071686;28;20038;-80
2022/06/21 00:36:27;;;;;;;17.35;5.35;;;24.60;99.90;;;;;;5085723;28;20036;-78
2022/06/21 00:38:55;;;;;;;15.35;4.60;;;24.60;99.90;;;;;;5069319;28;20072;-83
2022/06/21 00:41:31;;;;;;;18.45;5.00;;;24.60;99.90;;;;;;5060658;28;20080;-79
2022/06/21 00:44:01;;;;;;;18.02;5.00;;;24.60;99.90;;;;;;5084798;28;20099;-79
2022/06/21 00:46:45;;;;;;;24.25;4.93;;;24.60;99.90;;;;;;5071571;28;20036;-79
2022/06/21 00:49:27;;;;;;;16.98;4.88;;;24.50;99.90;;;;;;5087136;28;20040;-81
2022/06/21 00:52:14;;;;;;;20.65;5.88;;;24.50;99.90;;;;;;5086158;28;20059;-80
2022/06/21 00:54:54;;;;;;;24.60;5.47;;;24.50;99.90;;;;;;5083848;28;20060;-83
2022/06/21 00:57:27;;;;;;;18.70;4.88;;;24.30;99.90;;;;;;5073245;28;20036;-81
2022/06/21 00:59:58;;;;;;;17.60;4.80;;;24.40;99.90;;;;;;5070848;28;20101;-81
2022/06/21 01:02:33;;;;;;;17.98;4.72;;;24.40;99.90;;;;;;5071947;28;20037;-81
2022/06/21 01:05:02;;;;;;;20.30;5.18;;;24.40;99.90;;;;;;5083771;28;20061;-80
2022/06/21 01:07:32;;;;;;;18.48;5.03;;;24.40;99.90;;;;;;5069342;28;20048;-80
2022/06/21 01:10:10;;;;;;;16.65;4.78;;;24.40;99.90;;;;;;5049394;28;20037;-86
2022/06/21 01:13:01;;;;;;;16.90;5.07;;;24.40;99.90;;;;;;5061283;28;20033;-84
2022/06/21 01:15:42;;;;;;;20.00;5.28;;;24.30;99.90;;;;;;5037160;28;20408;-86
2022/06/21 01:18:09;;;;;;;19.52;5.63;;;24.30;99.90;;;;;;5081590;28;20041;-86
2022/06/21 01:20:39;;;;;;;16.67;4.95;;;24.30;99.90;;;;;;5070971;28;20045;-80
2022/06/21 01:23:34;;;;;;;24.95;5.40;;;24.30;99.90;;;;;;5054349;28;20042;-82
2022/06/21 01:26:19;;;;;;;22.85;5.45;;;24.30;99.90;;;;;;5084673;28;20036;-79
2022/06/21 01:28:46;;;;;;;22.95;5.57;;;24.30;99.90;;;;;;5074184;28;20037;-82
2022/06/21 01:31:14;;;;;;;21.55;5.95;;;24.30;99.90;;;;;;5058870;28;20096;-85
2022/06/21 01:33:42;;;;;;;24.52;5.78;;;24.30;99.90;;;;;;5053939;28;20112;-79
2022/06/21 01:36:31;;;;;;;18.98;5.10;;;24.30;99.90;;;;;;5086783;28;20479;-79
2022/06/21 01:39:10;;;;;;;17.65;5.53;;;24.30;99.90;;;;;;5023787;28;20041;-80
2022/06/21 01:41:50;;;;;;;17.85;5.53;;;24.30;99.90;;;;;;5044344;28;20041;-79
2022/06/21 01:44:25;;;;;;;19.85;5.28;;;24.30;99.90;;;;;;5056246;28;20055;-84
2022/06/21 01:46:52;;;;;;;17.67;5.35;;;24.30;99.90;;;;;;5064441;28;20047;-79
2022/06/21 01:49:23;;;;;;;18.58;5.07;;;24.30;99.90;;;;;;5070844;28;20032;-83
2022/06/21 01:51:55;;;;;;;20.20;5.03;;;24.30;99.90;;;;;;5057548;28;20044;-80
2022/06/21 01:54:25;;;;;;;19.65;5.22;;;24.30;99.90;;;;;;5084033;28;20033;-82
2022/06/21 01:56:52;;;;;;;18.23;4.85;;;24.30;99.90;;;;;;5072455;28;20081;-78
2022/06/21 01:59:31;;;;;;;20.55;4.90;;;24.20;99.90;;;;;;5077829;28;20078;-85
2022/06/21 02:02:12;;;;;;;19.08;5.38;;;24.30;99.90;;;;;;5088470;28;20040;-81
2022/06/21 02:04:59;;;;;;;16.52;4.65;;;24.20;99.90;;;;;;5064486;28;20044;-80
2022/06/21 02:07:33;;;;;;;17.42;4.07;;;24.30;99.90;;;;;;5051957;28;20044;-79
2022/06/21 02:10:10;;;;;;;17.52;4.78;;;24.20;99.90;;;;;;5069472;28;20063;-84
2022/06/21 02:12:40;;;;;;;17.10;4.95;;;24.20;99.90;;;;;;5065376;28;20026;-80
2022/06/21 02:15:08;;;;;;;19.20;5.32;;;24.20;99.90;;;;;;5061372;28;20446;-78
2022/06/21 02:17:42;;;;;;;20.23;4.90;;;24.30;99.90;;;;;;5032030;28;20037;-78
2022/06/21 02:20:46;;;;;;;22.02;4.80;;;24.20;99.90;;;;;;5095528;28;20449;-79
2022/06/21 02:23:17;;;;;;;15.25;4.70;;;24.20;99.90;;;;;;5022845;28;20046;-80
2022/06/21 02:25:44;;;;;;;16.42;4.68;;;24.20;99.90;;;;;;5048717;28;20056;-85
2022/06/21 02:28:14;;;;;;;14.73;4.22;;;24.30;99.90;;;;;;5083822;28;20514;-79
2022/06/21 02:30:42;;;;;;;12.05;3.50;;;24.40;99.90;;;;;;5057054;28;20040;-81
2022/06/21 02:33:16;;;;;;;15.35;4.20;;;24.50;99.90;;;;;;5052322;28;20415;-80
2022/06/21 02:35:53;;;;;;;21.58;4.57;;;24.60;99.90;;;;;;5051075;28;20068;-82
2022/06/21 02:38:56;;;;;;;14.93;3.65;;;24.70;99.90;;;;;;5049418;28;20121;-79
2022/06/21 02:41:39;;;;;;;14.68;3.40;;;24.80;99.90;;;;;;5031031;28;20393;-78
2022/06/21 02:44:24;;;;;;;12.90;4.22;;;24.90;99.90;;;;;;5055265;28;20060;-79
2022/06/21 02:46:56;;;;;;;12.45;3.72;;;24.80;99.90;;;;;;5049556;28;20033;-79
2022/06/21 02:49:31;;;;;;;14.00;4.10;;;24.80;99.90;;;;;;5042492;28;20045;-82
2022/06/21 02:52:09;;;;;;;19.55;3.78;;;24.90;99.90;;;;;;5048854;28;20052;-78
2022/06/21 02:54:52;;;;;;;15.57;3.30;;;24.90;99.90;;;;;;5061024;28;20065;-81
2022/06/21 02:57:32;;;;;;;21.23;4.00;;;25.00;99.90;;;;;;5073822;28;20045;-84
2022/06/21 03:00:00;;;;;;;14.93;3.83;;;25.00;99.90;;;;;;5076863;28;20045;-79
2022/06/21 03:02:32;;;;;;;16.50;4.43;;;25.00;99.90;;;;;;5070965;28;20029;-78
2022/06/21 03:05:10;;;;;;;20.45;5.28;;;24.80;99.90;;;;;;5088917;28;20033;-81
2022/06/21 03:07:40;;;;;;;10.80;4.05;;;24.80;99.90;;;;;;5087778;28;20032;-79
2022/06/21 03:10:16;;;;;;;13.45;4.25;;;24.70;99.90;;;;;;5069888;28;20069;-79
2022/06/21 03:12:42;;;;;;;16.25;4.43;;;24.70;99.90;;;;;;5085947;28;20060;-83
2022/06/21 03:15:11;;;;;;;15.68;3.95;;;24.70;99.90;;;;;;5080445;28;20558;-79
2022/06/21 03:17:42;;;;;;;18.70;4.43;;;24.80;99.90;;;;;;5089519;28;20074;-79
2022/06/21 03:20:17;;;;;;;16.00;4.25;;;24.80;99.90;;;;;;5072045;28;20458;-83
2022/06/21 03:22:45;;;;;;;13.98;3.85;;;24.80;99.90;;;;;;5060079;28;20054;-80
2022/06/21 03:25:21;;;;;;;14.30;4.28;;;24.80;99.90;;;;;;5091920;28;20120;-81
2022/06/21 03:27:59;;;;;;;12.90;3.65;;;24.80;99.90;;;;;;5051438;28;20511;-82
2022/06/21 03:30:31;;;;;;;30.35;4.55;;;24.70;99.90;;;;;;5065702;28;20045;-81
2022/06/21 03:32:58;;;;;;;;;;;24.70;99.90;;;;;;5060088;28;20481;-81
2022/06/21 03:35:29;;;;;;;14.75;4.70;;;24.60;99.90;;;;;;5060568;28;19936;-79
2022/06/21 03:37:55;;;;;;;18.42;4.50;;;24.70;99.90;;;;;;5049078;28;20032;-84
2022/06/21 03:43:28;;;;;;;16.17;4.30;;;24.60;99.90;;;;;;5080699;28;20079;-79
2022/06/21 03:46:00;;;;;;;22.27;4.63;;;24.60;99.90;;;;;;5084726;28;20097;-81
2022/06/21 03:48:40;;;;;;;19.85;5.90;;;24.50;99.90;;;;;;5085845;28;20088;-79
2022/06/21 03:51:14;;;;;;;17.35;5.40;;;24.50;99.90;;;;;;5093306;28;20048;-80
2022/06/21 03:54:26;;;;;;;21.20;5.15;;;24.50;99.90;;;;;;5049121;28;20036;-80
2022/06/21 03:57:18;;;;;;;19.20;5.32;;;24.40;99.90;;;;;;5081920;28;20032;-79
2022/06/21 03:59:48;;;;;;;19.92;6.38;;;24.40;99.90;;;;;;5057328;28;20040;-79
2022/06/21 04:02:27;;;;;;;18.88;5.32;;;24.30;99.90;;;;;;5085410;28;20120;-79
2022/06/21 04:05:07;;;;;;;20.33;5.47;;;24.20;99.90;;;;;;5057116;28;20517;-84
2022/06/21 04:07:52;;;;;;;16.95;5.50;;;24.20;99.90;;;;;;5067401;28;20444;-79
2022/06/21 04:10:47;;;;;;;16.67;4.90;;;24.20;99.90;;;;;;5059336;28;20080;-79
2022/06/21 04:13:41;;;;;;;19.70;6.03;;;24.20;99.90;;;;;;5059978;28;20508;-82
2022/06/21 04:16:17;;;;;;;14.90;4.90;;;24.20;99.90;;;;;;5074397;28;20029;-84
2022/06/21 04:19:24;;;;;;;23.27;6.07;;;24.30;99.90;;;;;;5089538;28;20037;-79
2022/06/21 04:21:53;;;;;;;18.45;5.50;;;24.30;99.90;;;;;;5041119;28;20462;-80
2022/06/21 04:24:45;;;;;;;17.08;6.30;;;24.30;99.90;;;;;;5052435;28;20053;-80
2022/06/21 04:27:26;;;;;;;21.63;6.43;;;24.30;99.90;;;;;;5070669;28;20625;-78
2022/06/21 04:29:58;;;;;;;21.90;5.93;;;24.30;99.90;;;;;;5088959;28;20059;-79
2022/06/21 04:32:36;;;;;;;17.73;5.47;;;24.20;99.90;;;;;;5089784;28;20484;-79
2022/06/21 04:35:09;;;;;;;22.88;5.20;;;24.20;99.90;;;;;;5061518;28;20098;-78
2022/06/21 04:37:44;;;;;;;17.35;5.80;;;24.20;99.90;;;;;;5068864;28;20041;-80
2022/06/21 04:40:48;;;;;;;16.63;5.15;;;24.20;99.90;;;;;;5068344;28;20048;-80
2022/06/21 04:43:26;;;;;;;16.98;5.90;;;24.10;99.90;;;;;;5061823;28;20044;-81
2022/06/21 04:46:12;;;;;;;18.98;5.05;;;24.20;99.90;;;;;;5055355;28;20124;-84
2022/06/21 04:48:41;;;;;;;16.75;5.20;;;24.20;99.90;;;;;;5090451;28;20148;-78
2022/06/21 04:51:25;;;;;;;19.75;6.55;;;24.20;99.90;;;;;;5047667;28;20059;-78
2022/06/21 04:54:04;;;;;;;16.05;5.13;;;24.10;99.90;;;;;;5066265;28;20116;-85
2022/06/21 04:56:46;;;;;;;17.73;5.45;;;24.20;99.90;;;;;;5069849;28;20040;-80
2022/06/21 04:59:34;;;;;;;17.80;4.82;;;24.10;99.90;;;;;;5080969;28;20062;-81
2022/06/21 05:02:01;;;;;;;20.45;4.82;;;24.20;99.90;;;;;;5065525;28;20034;-80
2022/06/21 05:04:28;;;;;;;23.48;5.50;;;24.20;99.90;;;;;;5056436;28;20750;-82
2022/06/21 05:06:59;;;;;;;23.13;4.97;;;24.20;99.90;;;;;;5080864;28;20065;-86
2022/06/21 05:09:30;;;;;;;16.95;5.22;;;24.30;99.90;;;;;;5072552;28;20056;-79
2022/06/21 05:12:05;;;;;;;19.33;5.53;;;24.40;99.90;;;;;;5079088;28;20120;-83
2022/06/21 05:14:38;;;;;;;16.80;4.90;;;24.40;99.90;;;;;;5026262;28;20075;-78
2022/06/21 05:17:10;;;;;;;20.67;5.90;;;24.40;99.90;;;;;;5027276;28;20072;-81
2022/06/21 05:19:43;;;;;;;15.53;4.97;;;24.50;99.90;;;;;;5063946;28;20082;-82
2022/06/21 05:22:30;;;;;;;14.25;4.30;;;24.50;99.90;;;;;;5069219;28;20037;-85
2022/06/21 05:24:59;;;;;;;20.10;4.38;;;24.60;99.90;;;;;;5075990;28;20060;-85
2022/06/21 05:27:38;;;;;;;24.23;4.95;;;24.60;99.90;;;;;;5062964;28;20029;-86
2022/06/21 05:30:37;;;;;;;17.30;4.70;;;24.70;99.90;;;;;;5075415;28;20064;-80
2022/06/21 05:33:35;;;;;;;17.40;4.60;;;24.70;99.90;;;;;;5078398;28;20072;-83
2022/06/21 05:36:07;;;;;;;19.48;4.50;;;24.80;99.90;;;;;;5090464;28;20040;-87
2022/06/21 05:38:38;;;;;;;;;;;24.90;99.90;;;;;;5091588;28;20082;-83
2022/06/21 05:41:31;;;;;;;18.52;5.15;;;25.00;99.90;;;;;;5089740;28;19912;-82
2022/06/21 05:44:40;;;;;;;17.45;5.05;;;25.00;99.90;;;;;;5075466;28;20096;-81
2022/06/21 05:47:19;;;;;;;19.08;4.82;;;25.00;99.90;;;;;;5019470;28;20072;-84
2022/06/21 05:49:47;;;;;;;19.70;4.47;;;25.00;99.90;;;;;;5019962;28;20041;-82
2022/06/21 05:52:38;;;;;;;14.73;4.50;;;25.00;99.90;;;;;;5050797;28;20041;-85
2022/06/21 05:55:35;;;;;;;17.15;4.22;;;25.00;99.90;;;;;;5077187;28;20062;-86
2022/06/21 05:58:24;;;;;;;19.10;5.07;;;25.00;99.90;;;;;;5086159;28;20045;-82
2022/06/21 06:01:24;;;;;;;18.38;3.80;;;25.00;99.90;;;;;;5028255;28;20514;-80
2022/06/21 06:04:15;;;;;;;15.23;4.03;;;25.00;99.90;;;;;;5044966;28;20055;-81
2022/06/21 06:06:44;;;;;;;14.63;4.53;;;25.00;99.90;;;;;;5075616;28;20852;-81
2022/06/21 06:09:27;;;;;;;21.45;4.88;;;25.10;99.90;;;;;;5038123;28;20021;-79
2022/06/21 06:12:16;;;;;;;13.02;4.30;;;25.10;99.90;;;;;;5046973;28;20042;-80
2022/06/21 06:15:09;;;;;;;13.88;4.40;;;25.20;99.90;;;;;;5041150;28;20040;-81
2022/06/21 06:17:55;;;;;;;19.20;4.78;;;25.20;99.90;;;;;;5065613;28;20067;-80
2022/06/21 06:20:44;;;;;;;17.23;4.68;;;25.30;99.90;;;;;;5065585;28;20489;-80
2022/06/21 06:23:33;;;;;;;20.10;4.47;;;25.30;99.90;;;;;;5068478;28;20037;-80
2022/06/21 06:26:23;;;;;;;17.98;4.35;;;25.30;99.90;;;;;;5052803;28;20052;-79
2022/06/21 06:29:05;;;;;;;19.83;4.80;;;25.40;99.90;;;;;;5075008;28;20075;-80
2022/06/21 06:31:37;;;;;;;21.42;5.07;;;25.40;99.90;;;;;;5068623;28;20029;-80
2022/06/21 06:34:09;;;;;;;18.35;5.45;;;25.50;99.90;;;;;;5087780;28;20036;-81
2022/06/21 06:36:43;;;;;;;14.65;4.82;;;25.60;99.90;;;;;;5095069;28;20047;-85
2022/06/21 06:39:32;;;;;;;19.83;5.30;;;25.60;99.90;;;;;;5059485;28;20084;-86
2022/06/21 06:42:17;;;;;;;17.83;4.95;;;25.70;99.90;;;;;;5077045;28;20045;-83
2022/06/21 06:44:50;;;;;;;24.02;5.15;;;25.60;99.90;;;;;;5081463;28;20028;-86
2022/06/21 06:47:30;;;;;;;22.17;5.43;;;25.60;99.90;;;;;;5079259;28;20041;-80
2022/06/21 06:50:23;;;;;;;16.30;5.03;;;25.60;99.90;;;;;;5044788;28;20055;-86
2022/06/21 06:53:08;;;;;;;23.23;5.07;;;25.60;99.90;;;;;;5048574;28;20048;-80
2022/06/21 06:55:56;;;;;;;24.40;5.72;;;25.40;99.90;;;;;;5056972;28;20167;-86
2022/06/21 06:58:48;;;;;;;18.73;5.63;;;25.50;99.90;;;;;;5096543;28;20041;-81
2022/06/21 07:01:45;;;;;;;18.65;5.22;;;25.60;99.90;;;;;;5064931;28;20047;-83
2022/06/21 07:04:15;;;;;;;28.17;5.72;;;25.50;99.90;;;;;;5064034;28;20044;-81
2022/06/21 07:06:54;;;;;;;23.92;6.15;;;25.60;99.90;;;;;;5085775;28;20036;-85
2022/06/21 07:09:29;;;;;;;18.80;5.97;;;25.80;99.90;;;;;;5084305;28;20061;-86
2022/06/21 07:12:15;;;;;;;25.30;5.90;;;26.00;99.90;;;;;;5081141;28;20484;-79
2022/06/21 07:14:42;;;;;;;24.75;6.15;;;26.10;99.90;;;;;;5074551;28;20041;-82
2022/06/21 07:17:47;;;;;;;16.98;4.43;;;26.20;99.90;;;;;;5073297;28;20435;-81
2022/06/21 07:20:25;;;;;;;21.30;5.35;;;26.30;99.90;;;;;;5086205;28;20041;-81
2022/06/21 07:22:55;;;;;;;20.90;4.80;;;26.10;99.90;;;;;;5072914;28;20033;-81
2022/06/21 07:25:31;;;;;;;18.42;5.28;;;26.30;99.90;;;;;;5066436;28;20051;-84
2022/06/21 07:28:21;;;;;;;26.55;6.00;;;26.40;99.90;;;;;;5069789;28;20045;-85
2022/06/21 07:30:52;;;;;;;18.00;5.00;;;26.10;99.90;;;;;;5058425;28;20032;-83
2022/06/21 07:33:50;;;;;;;21.87;4.70;;;25.90;99.90;;;;;;5058430;28;20056;-80
2022/06/21 07:36:24;;;;;;;26.00;5.35;;;25.90;99.90;;;;;;5059980;28;20362;-81
2022/06/21 07:39:04;;;;;;;25.13;5.63;;;25.80;99.90;;;;;;5089859;28;20128;-80
2022/06/21 07:41:38;;;;;;;22.55;5.60;;;25.90;99.90;;;;;;5096437;28;20036;-81
2022/06/21 07:44:13;;;;;;;25.90;5.78;;;25.70;99.90;;;;;;5052419;28;20045;-80
2022/06/21 07:46:45;;;;;;;24.52;5.00;;;25.60;99.90;;;;;;5059435;28;20036;-84
2022/06/21 07:49:25;;;;;;;24.95;5.22;;;25.60;99.90;;;;;;5034140;28;20037;-86
2022/06/21 07:52:05;;;;;;;22.33;5.53;;;25.70;99.90;;;;;;5070006;28;20035;-80
2022/06/21 07:54:37;;;;;;;22.13;5.60;;;25.70;99.90;;;;;;5059767;28;20128;-84
2022/06/21 07:57:09;;;;;;;20.55;5.65;;;25.80;99.90;;;;;;5056280;28;20097;-80
2022/06/21 07:59:43;;;;;;;21.75;5.85;;;25.80;99.90;;;;;;5097727;28;20033;-80
2022/06/21 08:08:10;;;;;;;24.58;5.88;;;26.00;99.90;;;;;;5041105;28;20044;-80
2022/06/21 08:10:42;;;;;;;19.88;5.95;;;25.90;99.90;;;;;;5067269;28;20040;-82
2022/06/21 08:13:10;;;;;;;16.17;5.65;;;25.80;99.90;;;;;;5083469;28;20024;-86
2022/06/21 08:15:42;;;;;;;20.67;5.60;;;25.80;99.90;;;;;;5057799;28;20041;-88
2022/06/21 08:18:29;;;;;;;19.85;5.63;;;25.80;99.90;;;;;;5089748;28;20045;-83
2022/06/21 08:21:12;;;;;;;21.48;5.82;;;25.90;99.90;;;;;;5093440;28;20049;-86
2022/06/21 08:24:02;;;;;;;21.55;6.50;;;25.90;99.90;;;;;;5104945;28;20396;-82
2022/06/21 08:26:38;;;;;;;23.25;6.40;;;25.70;99.90;;;;;;5066046;28;20068;-88
2022/06/21 08:29:17;;;;;;;19.92;5.50;;;25.70;99.90;;;;;;5093533;28;20037;-82
2022/06/21 08:31:55;;;;;;;20.00;5.45;;;25.80;99.90;;;;;;5094333;28;20032;-84
2022/06/21 08:34:44;;;;;;;24.55;5.82;;;26.00;99.90;;;;;;5054367;28;20135;-82
2022/06/21 08:37:28;;;;;;;22.92;5.65;;;26.10;99.90;;;;;;5065339;28;20380;-88
2022/06/21 08:40:00;;;;;;;24.40;5.65;;;25.90;99.90;;;;;;5088415;28;20037;-80
2022/06/21 08:42:29;;;;;;;21.35;6.05;;;26.00;99.90;;;;;;5093388;28;20024;-83
2022/06/21 08:48:19;;;;;;;28.48;6.18;;;26.40;99.90;;;;;;5078987;28;20047;-84
2022/06/21 08:51:07;;;;;;;25.80;6.18;;;26.60;99.90;;;;;;5080744;28;20090;-83
2022/06/21 08:53:56;;;;;;;15.25;5.38;;;26.40;99.90;;;;;;5082109;28;20060;-82
2022/06/21 08:56:31;;;;;;;28.55;7.75;;;26.10;99.90;;;;;;5065339;28;20041;-81
2022/06/21 08:59:28;;;;;;;24.27;6.25;;;26.00;99.90;;;;;;5086386;28;20063;-87
2022/06/21 09:02:25;;;;;;;23.75;6.13;;;26.00;99.90;;;;;;5067669;28;20796;-81
2022/06/21 09:05:14;;;;;;;29.70;6.85;;;25.90;99.90;;;;;;5083679;28;20072;-82
2022/06/21 09:07:58;;;;;;;26.02;6.47;;;25.90;99.90;;;;;;5073738;28;20088;-83
2022/06/21 09:10:59;;;;;;;25.23;5.95;;;25.70;99.90;;;;;;5093975;28;20159;-81
2022/06/21 09:13:56;;;;;;;25.13;5.75;;;25.70;99.90;;;;;;5077412;28;20048;-87
2022/06/21 09:16:34;;;;;;;28.55;6.90;;;25.60;99.90;;;;;;5089711;28;20049;-81
2022/06/21 09:19:18;;;;;;;28.40;6.90;;;25.60;99.90;;;;;;5090989;28;20126;-84
2022/06/21 09:22:23;;;;;;;26.42;6.53;;;25.60;99.90;;;;;;5077123;28;20021;-82
2022/06/21 09:25:21;;;;;;;25.65;6.15;;;25.60;99.90;;;;;;5045380;28;20033;-85
2022/06/21 09:27:51;;;;;;;22.58;6.25;;;25.90;99.90;;;;;;5093619;28;20029;-81
2022/06/21 09:30:40;;;;;;;24.20;5.65;;;26.20;99.90;;;;;;5070194;28;20041;-86
2022/06/21 09:33:42;;;;;;;24.75;6.18;;;26.60;99.90;;;;;;5057947;28;20558;-82
2022/06/21 09:36:16;;;;;;;21.25;5.90;;;26.90;99.90;;;;;;5068799;28;20050;-88
2022/06/21 09:38:56;;;;;;;21.67;6.05;;;27.10;99.90;;;;;;5084289;28;20042;-80
2022/06/21 09:42:01;;;;;;;24.45;5.45;;;27.20;99.90;;;;;;5068689;28;20108;-86
2022/06/21 09:45:23;;;;;;;22.17;6.30;;;27.20;99.90;;;;;;5063966;28;20044;-82
2022/06/21 09:48:29;;;;;;;20.67;5.13;;;27.30;99.90;;;;;;5076155;28;20100;-84
2022/06/21 09:51:06;;;;;;;23.10;5.03;;;27.20;99.90;;;;;;5047247;28;20516;-82
2022/06/21 09:53:51;;;;;;;17.27;4.90;;;27.10;99.90;;;;;;5067758;28;20041;-82
2022/06/21 09:56:41;;;;;;;22.17;5.40;;;26.70;99.90;;;;;;5092058;28;20036;-87
2022/06/21 09:59:14;;;;;;;21.45;5.53;;;26.60;99.90;;;;;;5056133;28;20043;-87
2022/06/21 10:01:58;;;;;;;28.23;5.72;;;26.60;99.90;;;;;;5077549;28;20035;-87
2022/06/21 10:04:43;;;;;;;25.38;5.72;;;26.60;99.90;;;;;;5064375;28;20123;-81
2022/06/21 10:07:58;;;;;;;19.95;5.95;;;26.50;99.90;;;;;;5076068;28;20044;-80
2022/06/21 10:10:59;;;;;;;21.83;5.97;;;26.50;99.90;;;;;;5054999;28;20060;-84
2022/06/21 10:13:55;;;;;;;24.08;6.57;;;26.50;99.90;;;;;;5073668;28;21929;-87
2022/06/21 10:16:49;;;;;;;21.48;6.65;;;26.70;99.90;;;;;;5047812;28;20148;-82
2022/06/21 10:19:28;;;;;;;25.00;7.32;;;26.70;99.90;;;;;;5089486;28;20036;-87
2022/06/21 10:22:03;;;;;;;27.85;7.85;;;26.80;99.90;;;;;;5052661;28;20459;-82
2022/06/21 10:24:48;;;;;;;21.35;6.15;;;26.70;99.90;;;;;;5060964;28;20065;-87
2022/06/21 10:27:23;;;;;;;25.88;6.53;;;26.50;99.90;;;;;;5055082;28;20037;-81
2022/06/21 10:30:20;;;;;;;21.80;6.50;;;26.50;99.90;;;;;;5059168;28;20038;-85
2022/06/21 10:33:19;;;;;;;25.38;7.80;;;26.60;99.90;;;;;;5085993;28;20064;-81
2022/06/21 10:36:22;;;;;;;23.88;6.72;;;26.80;99.90;;;;;;5077344;28;20036;-80
2022/06/21 10:39:21;;;;;;;31.10;7.78;;;27.10;99.90;;;;;;5077150;28;20024;-83
2022/06/21 10:45:29;;;;;;;26.33;7.03;;;27.60;99.90;;;;;;5055889;28;20044;-84
2022/06/21 10:48:12;;;;;;;33.22;7.75;;;27.90;99.90;;;;;;5078771;28;20034;-85
2022/06/21 10:51:13;;;;;;;24.02;6.93;;;28.00;99.90;;;;;;5073418;28;20056;-87
2022/06/21 10:54:06;;;;;;;28.40;7.53;;;28.20;99.90;;;;;;5065090;28;20025;-84
2022/06/21 10:57:10;;;;;;;27.10;7.32;;;28.30;99.90;;;;;;5057491;28;20044;-83
2022/06/21 11:02:54;;;;;;;23.88;7.18;;;28.50;99.90;;;;;;5038955;28;20040;-84
2022/06/21 11:05:38;;;;;;;31.98;9.70;;;28.90;99.90;;;;;;5094995;28;20044;-85
2022/06/21 11:08:17;;;;;;;26.88;6.88;;;29.10;99.90;;;;;;5071289;28;20067;-82
2022/06/21 11:10:56;;;;;;;26.83;7.18;;;29.80;99.90;;;;;;5058996;28;20479;-81
2022/06/21 11:13:34;;;;;;;21.58;5.78;;;30.50;99.90;;;;;;5056828;28;20060;-83
2022/06/21 11:16:10;;;;;;;19.90;6.22;;;31.00;99.90;;;;;;5069634;28;20038;-86
2022/06/21 11:19:22;;;;;;;21.90;5.78;;;31.20;99.90;;;;;;5085644;28;20543;-86
2022/06/21 11:22:06;;;;;;;20.42;5.45;;;30.80;99.90;;;;;;5086501;28;20033;-81
2022/06/21 11:25:12;;;;;;;19.73;5.70;;;30.80;99.90;;;;;;5077376;28;20033;-84
2022/06/21 11:27:56;;;;;;;21.08;6.25;;;30.60;99.90;;;;;;5023100;28;21687;-82
2022/06/21 11:30:36;;;;;;;24.40;6.07;;;30.60;99.90;;;;;;5056367;28;20048;-83
2022/06/21 11:33:28;;;;;;;22.95;6.03;;;30.60;99.90;;;;;;5065436;28;20045;-87
2022/06/21 11:36:06;;;;;;;21.33;5.93;;;30.50;99.90;;;;;;5074846;28;20045;-87
2022/06/21 11:39:30;;;;;;;25.65;6.38;;;30.60;99.90;;;;;;5100297;28;20040;-87
2022/06/21 11:42:16;;;;;;;29.20;6.75;;;31.00;99.90;;;;;;5033566;28;20136;-88
2022/06/21 11:45:14;;;;;;;20.45;5.80;;;31.60;99.90;;;;;;5046158;28;20431;-82
2022/06/21 11:47:58;;;;;;;28.80;6.35;;;31.90;99.90;;;;;;5067821;28;20040;-86
2022/06/21 11:50:50;;;;;;;20.75;6.05;;;31.80;99.90;;;;;;5091024;28;20045;-81
2022/06/21 11:53:38;;;;;;;22.80;6.03;;;31.90;99.90;;;;;;5078076;28;20040;-85
2022/06/21 11:56:19;;;;;;;24.35;5.68;;;32.50;99.90;;;;;;5062751;28;20045;-79
2022/06/21 11:59:17;;;;;;;22.43;5.83;;;32.50;99.90;;;;;;5085360;28;20037;-86
2022/06/21 12:02:14;;;;;;;21.88;5.90;;;32.60;99.90;;;;;;5059855;28;20281;-85
2022/06/21 12:05:01;;;;;;;18.48;5.47;;;33.10;99.90;;;;;;5080729;28;20055;-82
2022/06/21 12:07:46;;;;;;;23.17;5.35;;;33.10;99.90;;;;;;5086121;28;20112;-81
2022/06/21 12:10:33;;;;;;;20.63;5.55;;;33.70;99.90;;;;;;5081001;28;20095;-87
2022/06/21 12:13:20;;;;;;;20.38;4.90;;;34.00;98.90;;;;;;5059737;28;20053;-86
2022/06/21 12:15:55;;;;;;;19.63;4.90;;;34.10;98.20;;;;;;5055319;28;20036;-86
2022/06/21 12:18:26;;;;;;;17.17;4.22;;;34.30;97.70;;;;;;5079628;28;20041;-81
2022/06/21 12:20:58;;;;;;;17.83;4.28;;;34.40;97.10;;;;;;5082959;28;20200;-87
2022/06/21 12:24:13;;;;;;;14.20;4.25;;;34.50;96.20;;;;;;5071933;28;20052;-82
2022/06/21 12:26:41;;;;;;;18.92;4.10;;;35.00;95.00;;;;;;5088282;28;20040;-81
2022/06/21 12:29:16;;;;;;;12.13;3.50;;;35.50;93.70;;;;;;5088624;28;20047;-85
2022/06/21 12:31:58;;;;;;;14.07;3.88;;;35.70;93.40;;;;;;5083600;28;20529;-81
2022/06/21 12:34:42;;;;;;;19.92;3.97;;;35.50;93.50;;;;;;5086210;28;20063;-81
2022/06/21 12:37:24;;;;;;;16.45;4.63;;;35.40;93.70;;;;;;5078890;28;20041;-87
2022/06/21 12:40:24;;;;;;;17.08;4.18;;;35.30;93.10;;;;;;5068087;28;20047;-86
2022/06/21 12:43:15;;;;;;;16.65;4.32;;;35.40;92.70;;;;;;5019935;28;20564;-82
2022/06/21 12:45:51;;;;;;;19.83;4.07;;;35.30;92.60;;;;;;5037021;28;20033;-80
2022/06/21 12:49:05;;;;;;;16.02;3.88;;;35.40;92.50;;;;;;5041776;28;20086;-84
2022/06/21 12:52:02;;;;;;;14.63;3.45;;;35.50;92.40;;;;;;5067587;28;20037;-82
2022/06/21 12:54:51;;;;;;;15.15;3.70;;;35.80;91.90;;;;;;5078413;28;20052;-80
2022/06/21 12:57:51;;;;;;;12.65;3.50;;;35.90;91.60;;;;;;5071800;28;20033;-84
2022/06/21 13:00:47;;;;;;;14.63;5.05;;;35.90;91.40;;;;;;5053397;28;20029;-80
2022/06/21 13:03:46;;;;;;;16.73;4.18;;;35.80;90.90;;;;;;5026511;28;20036;-81
2022/06/21 13:06:33;;;;;;;15.23;3.83;;;35.90;90.50;;;;;;5052219;28;20028;-87
2022/06/21 13:09:56;;;;;;;16.17;3.17;;;35.90;90.40;;;;;;5067882;28;20044;-86
2022/06/21 13:12:54;;;;;;;16.23;4.05;;;35.80;90.00;;;;;;5052674;28;20751;-81
2022/06/21 13:15:57;;;;;;;18.85;3.65;;;35.60;90.00;;;;;;5054085;28;20834;-82
2022/06/21 13:18:58;;;;;;;14.02;4.45;;;36.20;90.30;;;;;;5064551;28;20044;-86
2022/06/21 13:22:00;;;;;;;17.77;4.32;;;36.10;91.50;;;;;;5053884;28;20041;-81
2022/06/21 13:24:55;;;;;;;18.80;4.25;;;35.40;92.80;;;;;;5061072;28;20032;-86
2022/06/21 13:27:34;;;;;;;21.90;4.18;;;35.20;92.30;;;;;;5073625;28;20048;-85
2022/06/21 13:30:04;;;;;;;18.88;4.20;;;34.20;93.00;;;;;;5072895;28;20418;-81
2022/06/21 13:32:53;;;;;;;18.50;4.53;;;34.00;93.70;;;;;;5063074;28;20041;-80
2022/06/21 13:36:02;;;;;;;20.60;3.78;;;33.10;94.00;;;;;;5086871;28;20057;-84
2022/06/21 13:38:42;;;;;;;18.73;3.75;;;32.40;94.40;;;;;;5086620;28;20035;-83
2022/06/21 13:44:33;;;;;;;20.60;4.35;;;32.20;96.50;;;;;;5069444;28;20059;-80
2022/06/21 13:47:17;;;;;;;18.00;5.07;;;31.60;97.00;;;;;;5082582;28;20072;-84
2022/06/21 13:49:49;;;;;;;17.65;4.75;;;30.80;98.80;;;;;;5063307;28;20048;-81
2022/06/21 13:52:25;;;;;;;31.10;4.80;;;31.10;99.90;;;;;;5089189;28;20137;-86
2022/06/21 13:55:08;;;;;;;20.85;4.35;;;30.80;99.90;;;;;;5091753;28;20127;-81
2022/06/21 13:58:07;;;;;;;25.63;4.45;;;30.00;99.90;;;;;;5086174;28;20057;-87
2022/06/21 14:01:12;;;;;;;17.42;4.13;;;29.60;99.90;;;;;;5064156;28;20056;-82
2022/06/21 14:04:01;;;;;;;23.83;5.82;;;29.40;99.90;;;;;;5063506;28;20037;-79
2022/06/21 14:06:57;;;;;;;15.40;3.80;;;29.30;99.90;;;;;;5062286;28;20038;-85
2022/06/21 14:09:44;;;;;;;12.95;4.10;;;28.70;99.90;;;;;;5102928;28;20033;-81
2022/06/21 14:12:37;;;;;;;19.88;4.90;;;28.50;99.90;;;;;;5073476;28;20044;-79
2022/06/21 14:15:09;;;;;;;16.35;3.95;;;28.60;99.90;;;;;;5056616;28;20078;-78
2022/06/21 14:18:24;;;;;;;19.10;4.00;;;28.20;99.90;;;;;;5015317;28;20049;-79